Terminal Aerodrome Forecast
Issued by NWS Wichita, KS

Home | Current Version | Previous Version | Text Only | Print | Product List | Glossary Off
Versions: 1 2 3 4 5 6 7 8 9 10 11 12 13 14 15 16 17 18 19 20 21 22 23 24 25 26

000
FTUS43 KICT 250229 AAB
TAFICT
TAF AMD
KICT 250229Z 2502/2524 01010KT P6SM VCTS SCT040CB OVC150
      TEMPO 2502/2504 5SM -TSRA SCT025 BKN040CB
     FM250400 36015G25KT P6SM VCTS OVC015CB
     FM250500 35015G25KT P6SM VCSH OVC008
     FM250900 33017G25KT P6SM OVC015
     FM251800 34015G22KT P6SM BKN025
     FM252300 34011KT P6SM SCT025=

USA.gov is the U.S. government's official web portal to all federal, state and local government web resources and services.